Time;durP1;ratioP1;P1;durP2;ratioP2;P2;SDS_P1;SDS_P2;PMS_P1;PMS_P2;Temp;Humidity;BMP_temperature;BMP_pressure;BME280_temperature;BME280_humidity;BME280_pressure;Samples;Min_cycle;Max_cycle;Signal;HPM_P1;HPM_P2
2021/12/03 00:01:17;;;;;;;10.88;4.45;;;;;;;;;;5096580;28;20027;-69
2021/12/03 00:03:43;;;;;;;9.23;4.32;;;;;;;;;;5096979;28;20026;-69
2021/12/03 00:06:10;;;;;;;7.85;4.00;;;;;;;;;;5096874;28;20388;-69
2021/12/03 00:08:36;;;;;;;7.47;4.15;;;;;;;;;;5096478;28;20102;-69
2021/12/03 00:11:04;;;;;;;7.63;3.72;;;;;;;;;;5096816;28;20020;-69
2021/12/03 00:13:31;;;;;;;7.97;4.30;;;;;;;;;;5096329;28;20389;-69
2021/12/03 00:15:58;;;;;;;8.18;4.10;;;;;;;;;;5096940;28;20452;-69
2021/12/03 00:18:24;;;;;;;6.68;3.50;;;;;;;;;;5096563;28;20387;-70
2021/12/03 00:20:51;;;;;;;8.10;4.05;;;;;;;;;;5096255;28;20476;-69
2021/12/03 00:23:18;;;;;;;8.20;4.25;;;;;;;;;;5096565;28;20016;-69
2021/12/03 00:25:44;;;;;;;8.07;3.72;;;;;;;;;;5096557;28;20108;-69
2021/12/03 00:28:11;;;;;;;7.15;3.92;;;;;;;;;;5095984;28;20353;-68
2021/12/03 00:30:37;;;;;;;8.30;4.65;;;;;;;;;;5096324;28;20021;-69
2021/12/03 00:33:04;;;;;;;10.10;3.88;;;;;;;;;;5096316;28;20095;-69
2021/12/03 00:35:31;;;;;;;12.70;4.97;;;;;;;;;;5095708;28;20032;-69
2021/12/03 00:37:57;;;;;;;10.43;3.90;;;;;;;;;;5096210;28;20095;-69
2021/12/03 00:40:27;;;;;;;12.13;5.75;;;;;;;;;;5096173;28;20025;-69
2021/12/03 00:42:53;;;;;;;7.30;4.35;;;;;;;;;;5095883;28;20020;-69
2021/12/03 00:45:21;;;;;;;10.35;4.63;;;;;;;;;;5095991;28;20065;-69
2021/12/03 00:47:47;;;;;;;6.95;3.85;;;;;;;;;;5095611;28;20024;-69
2021/12/03 00:50:16;;;;;;;9.50;4.65;;;;;;;;;;5095620;28;20480;-69
2021/12/03 00:52:42;;;;;;;9.75;4.57;;;;;;;;;;5096014;28;20070;-69
2021/12/03 00:55:09;;;;;;;10.23;5.28;;;;;;;;;;5096195;28;20111;-69
2021/12/03 00:57:36;;;;;;;9.63;3.88;;;;;;;;;;5095568;28;20022;-69
2021/12/03 01:00:03;;;;;;;10.18;3.78;;;;;;;;;;5095927;28;20094;-69
2021/12/03 01:02:29;;;;;;;5.72;3.13;;;;;;;;;;5095872;28;20024;-69
2021/12/03 01:04:56;;;;;;;10.85;4.22;;;;;;;;;;5095495;28;20444;-69
2021/12/03 01:07:22;;;;;;;7.22;3.60;;;;;;;;;;5094588;28;20034;-69
2021/12/03 01:09:48;;;;;;;7.57;3.78;;;;;;;;;;5095329;28;20380;-69
2021/12/03 01:12:15;;;;;;;13.85;4.25;;;;;;;;;;5095001;28;20028;-69
2021/12/03 01:14:41;;;;;;;7.18;3.58;;;;;;;;;;5095362;28;20105;-69
2021/12/03 01:17:07;;;;;;;12.10;3.83;;;;;;;;;;5095265;28;20020;-69
2021/12/03 01:19:34;;;;;;;7.20;3.72;;;;;;;;;;5095561;28;20032;-69
2021/12/03 01:22:00;;;;;;;10.05;3.55;;;;;;;;;;5095419;28;20408;-69
2021/12/03 01:24:26;;;;;;;9.65;3.72;;;;;;;;;;5095004;28;20020;-69
2021/12/03 01:26:54;;;;;;;8.70;4.13;;;;;;;;;;5095500;28;20028;-69
2021/12/03 01:29:23;;;;;;;8.57;3.88;;;;;;;;;;5095701;28;20016;-69
2021/12/03 01:31:51;;;;;;;6.72;3.00;;;;;;;;;;5093541;28;20115;-69
2021/12/03 01:34:18;;;;;;;8.15;3.75;;;;;;;;;;5095169;28;20024;-69
2021/12/03 01:36:44;;;;;;;7.35;3.22;;;;;;;;;;5095117;28;20020;-69
2021/12/03 01:39:12;;;;;;;6.57;3.22;;;;;;;;;;5094776;28;20016;-69
2021/12/03 01:41:38;;;;;;;5.40;3.33;;;;;;;;;;5095185;28;20495;-69
2021/12/03 01:44:05;;;;;;;6.78;2.90;;;;;;;;;;5093686;28;20023;-69
2021/12/03 01:46:32;;;;;;;5.90;3.05;;;;;;;;;;5094738;28;20055;-69
2021/12/03 01:48:59;;;;;;;5.20;2.75;;;;;;;;;;5094991;28;20035;-69
2021/12/03 01:51:26;;;;;;;7.00;3.38;;;;;;;;;;5094945;28;20051;-69
2021/12/03 01:53:53;;;;;;;5.65;3.15;;;;;;;;;;5094310;28;20113;-69
2021/12/03 01:56:20;;;;;;;5.40;2.55;;;;;;;;;;5094768;28;20027;-69
2021/12/03 01:58:47;;;;;;;5.53;3.10;;;;;;;;;;5094140;28;20053;-69
2021/12/03 02:01:17;;;;;;;6.05;3.45;;;;;;;;;;5094411;28;20020;-69
2021/12/03 02:03:45;;;;;;;8.50;3.15;;;;;;;;;;5094701;28;20115;-69
2021/12/03 02:06:12;;;;;;;6.28;2.97;;;;;;;;;;5094406;28;20396;-69
2021/12/03 02:08:39;;;;;;;5.97;3.05;;;;;;;;;;5094556;28;20020;-68
2021/12/03 02:11:06;;;;;;;6.30;3.08;;;;;;;;;;5094563;28;20028;-69
2021/12/03 02:13:33;;;;;;;6.10;2.58;;;;;;;;;;5094300;28;20020;-68
2021/12/03 02:15:59;;;;;;;4.45;2.63;;;;;;;;;;5094362;28;20511;-69
2021/12/03 02:18:25;;;;;;;8.02;3.47;;;;;;;;;;5094283;28;20028;-69
2021/12/03 02:20:53;;;;;;;6.65;4.05;;;;;;;;;;5093857;28;20020;-69
2021/12/03 02:23:20;;;;;;;6.65;3.67;;;;;;;;;;5094654;28;20077;-69
2021/12/03 02:25:46;;;;;;;6.75;3.25;;;;;;;;;;5094162;28;20024;-69
2021/12/03 02:28:13;;;;;;;6.15;3.50;;;;;;;;;;5094117;28;20378;-69
2021/12/03 02:30:40;;;;;;;6.88;3.13;;;;;;;;;;5095285;28;20020;-69
2021/12/03 02:33:06;;;;;;;5.68;2.75;;;;;;;;;;5094147;28;20027;-69
2021/12/03 02:35:33;;;;;;;8.13;3.25;;;;;;;;;;5093512;28;20039;-69
2021/12/03 02:37:59;;;;;;;8.85;3.20;;;;;;;;;;5094008;28;20020;-69
2021/12/03 02:40:26;;;;;;;137.88;123.90;;;;;;;;;;5092663;28;20480;-69
2021/12/03 02:42:53;;;;;;;5.15;2.80;;;;;;;;;;5093629;28;20024;-69
2021/12/03 02:45:20;;;;;;;5.47;2.85;;;;;;;;;;5094049;28;20054;-69
2021/12/03 02:47:47;;;;;;;6.60;3.45;;;;;;;;;;5093888;28;20020;-69
2021/12/03 02:50:14;;;;;;;8.13;4.18;;;;;;;;;;5093458;28;20032;-69
2021/12/03 02:52:41;;;;;;;5.93;3.30;;;;;;;;;;5093864;28;20474;-69
2021/12/03 02:55:08;;;;;;;10.38;3.30;;;;;;;;;;5093732;28;20107;-69
2021/12/03 02:57:34;;;;;;;9.10;4.00;;;;;;;;;;5093293;28;20024;-69
2021/12/03 03:00:00;;;;;;;7.15;3.30;;;;;;;;;;5092400;28;20028;-69
2021/12/03 03:02:27;;;;;;;5.68;3.03;;;;;;;;;;5093283;28;20379;-69
2021/12/03 03:04:53;;;;;;;7.68;3.08;;;;;;;;;;5093649;28;20024;-69
2021/12/03 03:07:19;;;;;;;6.88;3.80;;;;;;;;;;5092362;28;20024;-69
2021/12/03 03:09:46;;;;;;;7.43;3.03;;;;;;;;;;5092951;28;20027;-69
2021/12/03 03:12:15;;;;;;;6.38;3.10;;;;;;;;;;5093791;28;20097;-69
2021/12/03 03:14:51;;;;;;;6.53;3.47;;;;;;;;;;5093181;28;20126;-69
2021/12/03 03:17:17;;;;;;;8.30;3.88;;;;;;;;;;5093278;28;20047;-69
2021/12/03 03:19:43;;;;;;;7.53;3.90;;;;;;;;;;5094012;28;20032;-69
2021/12/03 03:22:10;;;;;;;13.07;6.40;;;;;;;;;;5092157;28;20463;-69
2021/12/03 03:24:36;;;;;;;8.93;3.70;;;;;;;;;;5093261;28;20353;-69
2021/12/03 03:27:03;;;;;;;6.40;3.33;;;;;;;;;;5093382;28;20053;-69
2021/12/03 03:29:30;;;;;;;7.20;3.17;;;;;;;;;;5093512;28;20031;-69
2021/12/03 03:31:57;;;;;;;6.63;3.47;;;;;;;;;;5093016;28;20099;-69
2021/12/03 03:34:23;;;;;;;6.55;2.88;;;;;;;;;;5093491;28;20373;-69
2021/12/03 03:36:49;;;;;;;5.68;2.40;;;;;;;;;;5093383;28;20027;-69
2021/12/03 03:39:15;;;;;;;7.45;2.63;;;;;;;;;;5092823;28;20035;-69
2021/12/03 03:41:42;;;;;;;6.82;2.88;;;;;;;;;;5093222;28;20028;-69
2021/12/03 03:44:10;;;;;;;5.13;2.53;;;;;;;;;;5093494;28;20035;-69
2021/12/03 03:46:37;;;;;;;6.97;2.78;;;;;;;;;;5092878;28;20020;-69
2021/12/03 03:49:04;;;;;;;423.90;239.70;;;;;;;;;;5091890;28;20443;-69
2021/12/03 03:51:30;;;;;;;178.30;156.18;;;;;;;;;;5093185;28;20500;-69
2021/12/03 03:53:56;;;;;;;;;;;;;;;;;;5093047;28;20107;-69
2021/12/03 03:56:22;;;;;;;7.00;2.70;;;;;;;;;;5093152;28;20929;-69
2021/12/03 03:58:48;;;;;;;4.72;2.55;;;;;;;;;;5092726;28;20020;-69
2021/12/03 04:01:14;;;;;;;8.90;3.20;;;;;;;;;;5093575;28;20402;-69
2021/12/03 04:03:45;;;;;;;5.93;2.78;;;;;;;;;;5092997;28;20035;-69
2021/12/03 04:06:12;;;;;;;6.25;2.70;;;;;;;;;;5092927;28;20044;-69
2021/12/03 04:08:38;;;;;;;4.60;2.22;;;;;;;;;;5093184;28;20024;-69
2021/12/03 04:11:04;;;;;;;6.25;2.85;;;;;;;;;;5092997;28;20017;-69
2021/12/03 04:13:30;;;;;;;4.80;2.53;;;;;;;;;;5092426;28;20028;-68
2021/12/03 04:15:57;;;;;;;5.55;2.28;;;;;;;;;;5092965;28;20036;-69
2021/12/03 04:18:23;;;;;;;8.68;2.63;;;;;;;;;;5092925;28;20020;-69
2021/12/03 04:20:49;;;;;;;6.10;2.72;;;;;;;;;;5092698;28;20024;-69
2021/12/03 04:23:19;;;;;;;9.55;2.80;;;;;;;;;;5096293;28;20024;-69
2021/12/03 04:25:46;;;;;;;6.57;2.33;;;;;;;;;;5096602;28;20020;-69
2021/12/03 04:28:12;;;;;;;5.60;2.55;;;;;;;;;;5096082;28;20025;-69
2021/12/03 04:30:38;;;;;;;5.43;2.28;;;;;;;;;;5096505;28;20031;-69
2021/12/03 04:33:05;;;;;;;5.13;3.08;;;;;;;;;;5096357;28;20048;-69
2021/12/03 04:35:31;;;;;;;4.00;2.47;;;;;;;;;;5095817;28;20031;-69
2021/12/03 04:37:57;;;;;;;6.10;2.75;;;;;;;;;;5095163;28;20433;-69
2021/12/03 04:40:24;;;;;;;5.18;2.33;;;;;;;;;;5094989;28;20028;-69
2021/12/03 04:42:50;;;;;;;6.60;2.60;;;;;;;;;;5095828;28;20024;-69
2021/12/03 04:45:18;;;;;;;8.23;3.10;;;;;;;;;;5096194;28;20103;-69
2021/12/03 04:47:45;;;;;;;7.90;2.55;;;;;;;;;;5094812;28;20020;-69
2021/12/03 04:50:12;;;;;;;6.43;2.75;;;;;;;;;;5095686;28;20059;-69
2021/12/03 04:52:38;;;;;;;6.88;3.33;;;;;;;;;;5096036;28;20522;-69
2021/12/03 04:55:05;;;;;;;10.35;4.25;;;;;;;;;;5094234;28;20043;-69
2021/12/03 04:57:31;;;;;;;10.05;2.60;;;;;;;;;;5095948;28;20375;-69
2021/12/03 04:59:57;;;;;;;10.27;4.65;;;;;;;;;;5096217;28;20388;-69
2021/12/03 05:02:25;;;;;;;7.20;3.50;;;;;;;;;;5095504;28;20506;-69
2021/12/03 05:04:54;;;;;;;8.77;5.43;;;;;;;;;;5096122;28;20376;-69
2021/12/03 05:07:42;;;;;;;10.85;5.13;;;;;;;;;;5095734;28;20016;-69
2021/12/03 05:10:09;;;;;;;12.25;6.57;;;;;;;;;;5095328;28;20031;-69
2021/12/03 05:12:35;;;;;;;12.20;6.32;;;;;;;;;;5095767;28;20031;-69
2021/12/03 05:15:01;;;;;;;9.93;4.40;;;;;;;;;;5094275;28;20126;-69
2021/12/03 05:17:27;;;;;;;9.68;4.63;;;;;;;;;;5095288;28;20031;-69
2021/12/03 05:19:54;;;;;;;11.05;5.43;;;;;;;;;;5095671;28;20441;-69
2021/12/03 05:22:20;;;;;;;17.83;6.57;;;;;;;;;;5095460;28;20478;-68
2021/12/03 05:24:46;;;;;;;13.75;6.13;;;;;;;;;;5095101;28;20032;-69
2021/12/03 05:27:14;;;;;;;7.80;3.95;;;;;;;;;;5095561;28;20025;-69
2021/12/03 05:29:42;;;;;;;15.80;7.40;;;;;;;;;;5095859;28;20103;-69
2021/12/03 05:32:08;;;;;;;11.10;4.60;;;;;;;;;;5094957;28;20021;-68
2021/12/03 05:34:34;;;;;;;10.85;5.00;;;;;;;;;;5094121;28;20035;-68
2021/12/03 05:37:01;;;;;;;11.25;5.50;;;;;;;;;;5095182;28;20052;-68
2021/12/03 05:39:27;;;;;;;10.27;4.95;;;;;;;;;;5094912;28;20384;-68
2021/12/03 05:41:53;;;;;;;10.75;4.85;;;;;;;;;;5093640;28;20499;-68
2021/12/03 05:44:20;;;;;;;11.48;5.82;;;;;;;;;;5094701;28;20057;-68
2021/12/03 05:46:46;;;;;;;9.90;4.40;;;;;;;;;;5095240;28;20400;-69
2021/12/03 05:49:12;;;;;;;8.48;4.15;;;;;;;;;;5094920;28;20052;-68
2021/12/03 05:51:39;;;;;;;10.45;4.70;;;;;;;;;;5093135;28;20028;-69
2021/12/03 05:54:05;;;;;;;5.10;2.80;;;;;;;;;;5094780;28;20012;-70
2021/12/03 05:56:31;;;;;;;6.28;3.30;;;;;;;;;;5094979;28;20032;-69
2021/12/03 05:58:57;;;;;;;7.65;3.75;;;;;;;;;;5094627;28;20020;-68
2021/12/03 06:01:24;;;;;;;9.77;4.07;;;;;;;;;;5094675;28;20058;-68
2021/12/03 06:03:50;;;;;;;15.77;6.55;;;;;;;;;;5094970;28;20016;-68
2021/12/03 06:06:16;;;;;;;5.72;2.75;;;;;;;;;;5094339;28;20024;-69
2021/12/03 06:08:43;;;;;;;6.18;2.53;;;;;;;;;;5095162;28;20016;-69
2021/12/03 06:11:09;;;;;;;9.43;3.63;;;;;;;;;;5094760;28;20077;-70
2021/12/03 06:13:39;;;;;;;7.55;2.40;;;;;;;;;;5093206;28;20020;-69
2021/12/03 06:16:10;;;;;;;5.10;2.72;;;;;;;;;;5091742;28;20476;-69
2021/12/03 06:18:36;;;;;;;8.80;4.15;;;;;;;;;;5092765;28;20077;-68
2021/12/03 06:21:03;;;;;;;9.73;3.28;;;;;;;;;;5092870;28;20024;-69
2021/12/03 06:23:29;;;;;;;7.28;2.42;;;;;;;;;;5093424;28;20056;-69
2021/12/03 06:25:57;;;;;;;12.10;3.67;;;;;;;;;;5092186;28;20028;-69
2021/12/03 06:28:24;;;;;;;9.05;2.33;;;;;;;;;;5090331;28;20023;-69
2021/12/03 06:30:52;;;;;;;11.15;3.72;;;;;;;;;;5091687;28;20103;-68
2021/12/03 06:33:19;;;;;;;8.63;4.15;;;;;;;;;;5092365;28;20380;-68
2021/12/03 06:35:48;;;;;;;6.00;3.28;;;;;;;;;;5093425;28;20024;-66
2021/12/03 06:38:16;;;;;;;9.45;3.58;;;;;;;;;;5093657;28;20031;-67
2021/12/03 06:40:43;;;;;;;6.97;3.42;;;;;;;;;;5091820;28;20028;-72
2021/12/03 06:43:09;;;;;;;9.38;3.45;;;;;;;;;;5093522;28;20030;-67
2021/12/03 06:45:36;;;;;;;8.73;3.88;;;;;;;;;;5094756;28;20074;-68
2021/12/03 06:48:02;;;;;;;12.10;5.47;;;;;;;;;;5081241;28;20077;-68
2021/12/03 06:50:31;;;;;;;7.57;3.13;;;;;;;;;;5092539;28;20103;-68
2021/12/03 07:10:19;;;;;;;13.75;7.00;;;;;;;;;;5070069;28;20457;-67
2021/12/03 07:15:19;;;;;;;19.38;8.75;;;;;;;;;;5070317;28;20396;-69
2021/12/03 07:17:49;;;;;;;9.50;5.03;;;;;;;;;;5070125;28;20423;-66
2021/12/03 07:20:15;;;;;;;12.93;7.78;;;;;;;;;;5070401;28;20063;-66
2021/12/03 07:22:42;;;;;;;11.77;6.55;;;;;;;;;;5069751;28;20024;-67
2021/12/03 07:25:08;;;;;;;11.63;5.13;;;;;;;;;;5069780;28;20096;-67
2021/12/03 07:27:35;;;;;;;13.35;6.93;;;;;;;;;;5069626;28;20502;-67
2021/12/03 07:30:02;;;;;;;9.20;5.13;;;;;;;;;;5065171;28;20025;-66
2021/12/03 07:34:35;;;;;;;9.05;5.50;;;;;;;;;;5063653;28;20395;-68
2021/12/03 07:37:02;;;;;;;13.55;6.85;;;;;;;;;;5068557;28;20079;-67
2021/12/03 07:39:28;;;;;;;16.88;10.05;;;;;;;;;;5067182;28;20025;-67
2021/12/03 07:47:06;;;;;;;11.18;7.10;;;;;;;;;;5101090;27;1506580;-68
2021/12/03 07:49:33;;;;;;;11.10;4.03;;;;;;;;;;5130611;28;20038;-68
2021/12/03 07:51:59;;;;;;;13.07;5.20;;;;;;;;;;5131202;27;20073;-69
2021/12/03 07:54:26;;;;;;;10.07;4.82;;;;;;;;;;5129728;27;20088;-68
2021/12/03 07:56:52;;;;;;;18.25;7.93;;;;;;;;;;5130644;28;20032;-67
2021/12/03 08:01:52;;;;;;;12.60;6.65;;;;;;;;;;5110490;27;20957;-67
2021/12/03 08:04:18;;;;;;;15.75;8.27;;;;;;;;;;5110134;28;20024;-68
2021/12/03 08:06:51;;;;;;;20.92;9.00;;;;;;;;;;5109667;28;20020;-67
2021/12/03 08:09:17;;;;;;;14.55;6.15;;;;;;;;;;5107719;28;20020;-66
2021/12/03 08:16:17;;;;;;;13.30;6.43;;;;;;;;;;5109893;27;20927;-67
2021/12/03 08:21:29;;;;;;;17.10;8.73;;;;;;;;;;5111939;27;20429;-67
2021/12/03 08:25:19;;;;;;;22.65;11.30;;;;;;;;;;5108775;27;20454;-68
2021/12/03 08:27:45;;;;;;;23.45;11.48;;;;;;;;;;5109854;28;20105;-67
2021/12/03 08:30:13;;;;;;;20.92;9.70;;;;;;;;;;5109905;28;20069;-67
2021/12/03 08:34:12;;;;;;;32.47;18.13;;;;;;;;;;5106694;27;20488;-68
2021/12/03 08:36:39;;;;;;;21.17;11.82;;;;;;;;;;5107558;28;20036;-68
2021/12/03 08:39:05;;;;;;;15.20;8.25;;;;;;;;;;5108334;28;20047;-68
2021/12/03 08:43:35;;;;;;;11.90;5.78;;;;;;;;;;5109958;27;20335;-67
2021/12/03 08:46:08;;;;;;;16.05;6.60;;;;;;;;;;5108512;28;20037;-67
2021/12/03 08:48:37;;;;;;;13.40;6.25;;;;;;;;;;5100457;28;20020;-66
2021/12/03 08:51:13;;;;;;;17.15;6.43;;;;;;;;;;5089903;28;20016;-65
2021/12/03 08:55:15;;;;;;;9.13;5.13;;;;;;;;;;5112397;27;20400;-66
2021/12/03 08:57:41;;;;;;;26.50;6.78;;;;;;;;;;5110132;28;20028;-66
2021/12/03 09:00:08;;;;;;;9.30;4.40;;;;;;;;;;5109149;28;20487;-68
2021/12/03 09:02:35;;;;;;;9.05;4.47;;;;;;;;;;5108997;28;20031;-67
2021/12/03 09:05:01;;;;;;;8.57;3.80;;;;;;;;;;5107835;28;20024;-68
2021/12/03 09:07:27;;;;;;;10.68;4.05;;;;;;;;;;5109005;28;20027;-69
2021/12/03 09:10:25;;;;;;;10.65;4.20;;;;;;;;;;5089321;27;21192;-68
2021/12/03 09:12:52;;;;;;;19.38;7.95;;;;;;;;;;5088515;28;20028;-66
2021/12/03 09:15:24;;;;;;;19.30;9.45;;;;;;;;;;5088732;28;20435;-67
2021/12/03 09:20:49;;;;;;;24.85;11.35;;;;;;;;;;5110056;27;20397;-67
2021/12/03 09:23:24;;;;;;;15.57;7.35;;;;;;;;;;5106517;28;20032;-68
2021/12/03 09:25:56;;;;;;;19.88;9.27;;;;;;;;;;5108089;28;20364;-68
2021/12/03 09:28:26;;;;;;;17.30;7.80;;;;;;;;;;5106340;28;20081;-69
2021/12/03 09:30:53;;;;;;;14.35;6.82;;;;;;;;;;5108301;28;20081;-69
2021/12/03 09:37:07;;;;;;;18.92;10.07;;;;;;;;;;5109052;27;20451;-69
2021/12/03 09:40:29;;;;;;;17.20;9.52;;;;;;;;;;5108853;27;20392;-68
2021/12/03 09:44:33;;;;;;;19.67;8.85;;;;;;;;;;5107403;27;20392;-68
2021/12/03 09:47:02;;;;;;;13.07;5.75;;;;;;;;;;5110362;28;20027;-68
2021/12/03 09:52:11;;;;;;;12.90;6.28;;;;;;;;;;5106759;28;20016;-67
2021/12/03 09:56:18;;;;;;;14.35;7.28;;;;;;;;;;5104743;27;20388;-67
2021/12/03 10:24:54;;;;;;;14.80;6.75;;;;;;;;;;5128817;27;20545;-69
2021/12/03 10:38:22;;;;;;;13.27;4.78;;;;;;;;;;5107815;28;20062;-68
2021/12/03 10:41:19;;;;;;;9.70;4.20;;;;;;;;;;5090294;28;20363;-67
2021/12/03 10:46:23;;;;;;;8.38;3.45;;;;;;;;;;5109879;28;20032;-66
2021/12/03 10:51:58;;;;;;;6.72;3.25;;;;;;;;;;5128510;28;20084;-66
2021/12/03 11:00:43;;;;;;;10.98;4.50;;;;;;;;;;5107849;28;20051;-66
2021/12/03 11:33:58;;;;;;;12.13;4.00;;;;;;;;;;5108803;28;20038;-65
2021/12/03 11:37:44;;;;;;;8.60;3.13;;;;;;;;;;5101054;27;20417;-65
2021/12/03 11:44:45;;;;;;;16.98;6.80;;;;;;;;;;5130759;27;20468;-66
2021/12/03 12:25:50;;;;;;;16.27;8.52;;;;;;;;;;5109653;28;20489;-65
2021/12/03 12:44:54;;;;;;;26.25;13.30;;;;;;;;;;5149507;27;20115;-66
2021/12/03 13:20:42;;;;;;;15.27;7.60;;;;;;;;;;5172251;27;20328;-70
2021/12/03 14:05:24;;;;;;;16.75;7.45;;;;;;;;;;5110169;27;20397;-72
2021/12/03 14:36:22;;;;;;;14.40;5.85;;;;;;;;;;5070629;28;20811;-71
2021/12/03 14:41:14;;;;;;;16.85;10.30;;;;;;;;;;5070358;28;20021;-69
2021/12/03 14:44:04;;;;;;;17.80;11.20;;;;;;;;;;5070095;28;20025;-69
2021/12/03 14:46:43;;;;;;;22.58;11.45;;;;;;;;;;5070493;28;20016;-71
2021/12/03 14:49:30;;;;;;;15.30;8.02;;;;;;;;;;5070250;28;20025;-70
2021/12/03 14:56:00;;;;;;;20.02;10.18;;;;;;;;;;5070857;28;20032;-71
2021/12/03 15:07:09;;;;;;;21.17;11.00;;;;;;;;;;5110965;27;20396;-72
2021/12/03 15:09:39;;;;;;;25.40;13.13;;;;;;;;;;5111565;28;20046;-72
2021/12/03 15:33:37;;;;;;;21.63;12.75;;;;;;;;;;5104318;28;20097;-68
2021/12/03 15:36:07;;;;;;;17.60;8.13;;;;;;;;;;5096324;28;20099;-70
2021/12/03 16:04:32;;;;;;;26.13;14.10;;;;;;;;;;5131474;27;20349;-70
2021/12/03 16:08:16;;;;;;;49.88;25.10;;;;;;;;;;5110820;27;20760;-70
2021/12/03 16:44:50;;;;;;;51.25;32.80;;;;;;;;;;5068296;28;20028;-71
2021/12/03 16:52:47;;;;;;;55.65;34.17;;;;;;;;;;5110835;27;20389;-71
2021/12/03 16:55:14;;;;;;;56.20;34.08;;;;;;;;;;5110870;28;20032;-72
2021/12/03 16:57:42;;;;;;;128.95;77.72;;;;;;;;;;5110747;28;20020;-72
2021/12/03 17:00:58;;;;;;;59.35;36.85;;;;;;;;;;5111184;28;20048;-71
2021/12/03 17:04:51;;;;;;;51.60;35.75;;;;;;;;;;5079652;27;1515461;-72
2021/12/03 17:08:17;;;;;;;52.78;33.58;;;;;;;;;;5111177;28;20114;-71
2021/12/03 17:10:20;;;;;;;57.85;37.42;;;;;;;;;;5107729;28;20035;-71
2021/12/03 17:16:24;;;;;;;62.60;39.92;;;;;;;;;;5109278;28;20383;-71
2021/12/03 17:45:00;;;;;;;109.28;73.60;;;;;;;;;;5111484;27;20405;-71
2021/12/03 17:53:25;;;;;;;48.22;32.15;;;;;;;;;;5111141;28;20100;-71
2021/12/03 17:58:32;;;;;;;54.40;32.45;;;;;;;;;;5111065;28;20052;-71
2021/12/03 18:02:15;;;;;;;51.60;32.28;;;;;;;;;;5111019;27;20396;-71
2021/12/03 18:18:28;;;;;;;23.90;11.75;;;;;;;;;;5111129;28;20030;-71
2021/12/03 18:58:03;;;;;;;13.88;7.20;;;;;;;;;;5109980;28;20020;-70
2021/12/03 19:00:31;;;;;;;10.68;6.15;;;;;;;;;;5110270;28;20012;-71
2021/12/03 19:03:00;;;;;;;9.32;4.32;;;;;;;;;;5110344;28;20107;-71
2021/12/03 19:05:39;;;;;;;7.80;3.63;;;;;;;;;;5109515;28;20495;-70
2021/12/03 19:08:09;;;;;;;11.93;5.80;;;;;;;;;;5110381;28;20023;-70
2021/12/03 19:10:43;;;;;;;10.70;5.88;;;;;;;;;;5110597;28;20012;-70
2021/12/03 19:13:14;;;;;;;9.40;4.93;;;;;;;;;;5110632;28;20020;-70
2021/12/03 19:15:42;;;;;;;9.85;5.13;;;;;;;;;;5110006;28;20428;-70
2021/12/03 19:18:08;;;;;;;12.52;5.60;;;;;;;;;;5096128;28;20108;-70
2021/12/03 19:20:39;;;;;;;16.95;7.10;;;;;;;;;;5096270;28;20496;-71
2021/12/03 19:23:05;;;;;;;14.82;7.40;;;;;;;;;;5096505;28;20051;-71
2021/12/03 19:25:32;;;;;;;12.43;5.75;;;;;;;;;;5096109;28;20107;-70
2021/12/03 19:27:58;;;;;;;17.90;8.82;;;;;;;;;;5096461;28;20020;-70
2021/12/03 19:30:24;;;;;;;13.95;6.47;;;;;;;;;;5096142;28;20048;-71
2021/12/03 19:32:51;;;;;;;9.90;5.63;;;;;;;;;;5095805;28;20036;-71
2021/12/03 19:35:17;;;;;;;13.35;5.90;;;;;;;;;;5096216;28;20027;-71
2021/12/03 19:37:45;;;;;;;11.98;6.10;;;;;;;;;;5096090;28;20103;-71
2021/12/03 19:40:12;;;;;;;12.35;6.72;;;;;;;;;;5094259;28;20016;-71
2021/12/03 19:42:45;;;;;;;14.50;6.32;;;;;;;;;;5095884;28;20055;-71
2021/12/03 19:45:16;;;;;;;;;;;;;;;;;;5096353;28;20020;-71
2021/12/03 19:50:32;;;;;;;15.38;6.13;;;;;;;;;;5096319;28;20024;-71
2021/12/03 19:53:09;;;;;;;16.02;7.75;;;;;;;;;;5095412;28;20074;-71
2021/12/03 19:55:37;;;;;;;9.75;4.30;;;;;;;;;;5095931;28;20025;-71
2021/12/03 19:58:06;;;;;;;8.15;4.57;;;;;;;;;;5095925;28;20052;-71
2021/12/03 20:00:32;;;;;;;12.75;5.47;;;;;;;;;;5095135;28;20020;-71
2021/12/03 20:03:00;;;;;;;13.45;5.43;;;;;;;;;;5095521;28;20024;-71
2021/12/03 20:05:26;;;;;;;10.43;5.20;;;;;;;;;;5095231;28;20055;-71
2021/12/03 20:07:54;;;;;;;11.10;3.83;;;;;;;;;;5095021;28;20027;-71
2021/12/03 20:10:23;;;;;;;11.98;5.50;;;;;;;;;;5095525;28;20031;-71
2021/12/03 20:12:50;;;;;;;11.75;5.25;;;;;;;;;;5095285;28;20027;-71
2021/12/03 20:15:26;;;;;;;10.90;5.22;;;;;;;;;;5094935;28;20165;-71
2021/12/03 20:17:57;;;;;;;11.35;4.63;;;;;;;;;;5095282;28;20049;-71
2021/12/03 20:20:25;;;;;;;11.30;4.93;;;;;;;;;;5095347;28;20499;-71
2021/12/03 20:23:26;;;;;;;5.97;3.13;;;;;;;;;;5094810;28;20130;-71
2021/12/03 20:28:12;;;;;;;8.13;4.13;;;;;;;;;;5094296;28;20436;-71
2021/12/03 20:30:49;;;;;;;8.68;3.70;;;;;;;;;;5093623;28;20024;-71
2021/12/03 20:38:29;;;;;;;9.75;3.95;;;;;;;;;;5095133;28;20464;-71
2021/12/03 20:40:59;;;;;;;8.25;4.78;;;;;;;;;;5094726;28;20020;-71
2021/12/03 20:48:41;;;;;;;8.95;4.47;;;;;;;;;;5094711;28;20099;-71
2021/12/03 21:07:59;;;;;;;5.68;2.58;;;;;;;;;;5093714;28;20447;-70
2021/12/03 21:10:22;;;;;;;5.72;2.58;;;;;;;;;;5094099;28;20031;-71
2021/12/03 21:12:51;;;;;;;4.85;2.25;;;;;;;;;;5094231;28;20028;-71
2021/12/03 21:15:24;;;;;;;6.28;3.00;;;;;;;;;;5094228;28;20024;-71
2021/12/03 21:18:06;;;;;;;3.22;2.20;;;;;;;;;;5093704;28;20028;-69
2021/12/03 21:20:38;;;;;;;7.97;3.25;;;;;;;;;;5093967;28;20051;-70
2021/12/03 21:23:08;;;;;;;6.30;2.60;;;;;;;;;;5094546;28;20020;-70
2021/12/03 21:25:36;;;;;;;6.28;2.90;;;;;;;;;;5093795;28;20484;-70
2021/12/03 21:28:54;;;;;;;12.32;3.30;;;;;;;;;;5093904;28;20546;-70
2021/12/03 21:31:07;;;;;;;5.28;2.63;;;;;;;;;;5089671;28;20430;-70
2021/12/03 21:41:22;;;;;;;5.88;2.63;;;;;;;;;;5093490;28;20035;-69
2021/12/03 21:43:49;;;;;;;5.07;2.33;;;;;;;;;;5093944;28;20019;-69
2021/12/03 21:46:17;;;;;;;4.70;2.28;;;;;;;;;;5091925;28;20346;-69
2021/12/03 21:48:43;;;;;;;3.30;1.95;;;;;;;;;;5093680;28;20032;-69
2021/12/03 21:51:09;;;;;;;5.05;2.67;;;;;;;;;;5093588;28;20024;-71
2021/12/03 21:53:36;;;;;;;5.55;2.22;;;;;;;;;;5093331;28;20077;-70
2021/12/03 21:56:02;;;;;;;3.72;2.03;;;;;;;;;;5094057;28;20026;-70
2021/12/03 21:58:28;;;;;;;3.88;1.83;;;;;;;;;;5093571;28;20016;-70
2021/12/03 22:00:54;;;;;;;7.80;2.20;;;;;;;;;;5093342;28;20030;-70
2021/12/03 22:03:20;;;;;;;6.47;2.03;;;;;;;;;;5093385;28;20024;-70
2021/12/03 22:05:50;;;;;;;5.18;2.85;;;;;;;;;;5093165;28;20040;-70
2021/12/03 22:08:16;;;;;;;4.82;2.20;;;;;;;;;;5093009;28;20021;-70
2021/12/03 22:10:42;;;;;;;6.32;2.50;;;;;;;;;;5093446;28;20047;-70
2021/12/03 22:13:09;;;;;;;3.58;1.95;;;;;;;;;;5093537;28;20076;-70
2021/12/03 22:15:35;;;;;;;3.85;2.10;;;;;;;;;;5091689;28;20562;-70
2021/12/03 22:18:02;;;;;;;5.40;2.28;;;;;;;;;;5093348;28;20028;-70
2021/12/03 22:20:28;;;;;;;4.78;2.25;;;;;;;;;;5093312;28;20027;-70
2021/12/03 22:22:54;;;;;;;3.55;1.88;;;;;;;;;;5091697;28;20028;-70
2021/12/03 22:25:21;;;;;;;6.35;2.67;;;;;;;;;;5093261;28;20059;-70
2021/12/03 22:27:47;;;;;;;2.45;1.70;;;;;;;;;;5092868;28;20023;-70
2021/12/03 22:30:14;;;;;;;4.88;2.45;;;;;;;;;;5093360;28;20095;-70
2021/12/03 22:32:40;;;;;;;6.65;2.65;;;;;;;;;;5093359;28;20028;-70
2021/12/03 22:35:06;;;;;;;3.22;1.70;;;;;;;;;;5092839;28;20024;-71
2021/12/03 22:37:33;;;;;;;5.53;2.28;;;;;;;;;;5093496;28;20043;-71
2021/12/03 22:40:02;;;;;;;4.15;2.00;;;;;;;;;;5093209;28;20495;-72
2021/12/03 22:42:28;;;;;;;5.75;2.65;;;;;;;;;;5092802;28;20103;-70
2021/12/03 22:44:54;;;;;;;6.47;2.83;;;;;;;;;;5093354;28;20028;-71
2021/12/03 22:47:35;;;;;;;7.78;2.92;;;;;;;;;;5093275;28;20064;-70
2021/12/03 22:52:38;;;;;;;5.93;2.67;;;;;;;;;;5095274;28;20388;-71
2021/12/03 22:55:05;;;;;;;4.93;2.20;;;;;;;;;;5096958;28;20024;-70
2021/12/03 22:57:32;;;;;;;5.90;2.83;;;;;;;;;;5096394;28;20020;-71
2021/12/03 22:59:58;;;;;;;4.00;1.90;;;;;;;;;;5097019;28;20137;-71
2021/12/03 23:02:24;;;;;;;4.90;2.33;;;;;;;;;;5096917;28;20016;-71
2021/12/03 23:04:51;;;;;;;4.45;1.98;;;;;;;;;;5094853;28;20048;-70
2021/12/03 23:07:17;;;;;;;4.60;2.10;;;;;;;;;;5095451;28;20031;-71
2021/12/03 23:09:44;;;;;;;7.03;2.33;;;;;;;;;;5096710;28;20475;-71
2021/12/03 23:12:12;;;;;;;8.45;2.75;;;;;;;;;;5096206;28;20035;-71
2021/12/03 23:14:41;;;;;;;3.67;2.05;;;;;;;;;;5095216;28;20081;-71
2021/12/03 23:17:08;;;;;;;5.18;2.35;;;;;;;;;;5096076;28;20024;-71
2021/12/03 23:19:34;;;;;;;3.83;2.35;;;;;;;;;;5096437;28;20027;-71
2021/12/03 23:22:02;;;;;;;3.38;1.80;;;;;;;;;;5095058;28;20093;-71
2021/12/03 23:24:28;;;;;;;5.07;1.77;;;;;;;;;;5096250;28;20012;-71
2021/12/03 23:26:55;;;;;;;3.90;1.98;;;;;;;;;;5096154;28;20059;-71
2021/12/03 23:29:21;;;;;;;3.80;2.10;;;;;;;;;;5096718;28;20464;-71
2021/12/03 23:31:50;;;;;;;3.90;2.05;;;;;;;;;;5095806;28;20099;-71
2021/12/03 23:34:19;;;;;;;4.43;2.22;;;;;;;;;;5096050;28;20028;-71
2021/12/03 23:36:46;;;;;;;5.93;2.50;;;;;;;;;;5096103;28;20016;-71
2021/12/03 23:39:13;;;;;;;4.47;2.15;;;;;;;;;;5095659;28;20024;-71
2021/12/03 23:41:39;;;;;;;5.70;1.90;;;;;;;;;;5096198;28;20487;-71